createdAt,value
2022-08-23T00:00:13.291Z,0
2022-08-23T00:05:10.147Z,0
2022-08-23T00:10:13.810Z,0
2022-08-23T00:15:18.097Z,0
2022-08-23T00:20:22.150Z,0
2022-08-23T00:25:26.271Z,0
2022-08-23T00:30:30.453Z,0
2022-08-23T00:35:34.626Z,0
2022-08-23T00:40:38.789Z,0
2022-08-23T00:45:41.019Z,0
2022-08-23T00:50:45.209Z,0
2022-08-23T00:55:49.374Z,0
2022-08-23T01:00:53.527Z,0
2022-08-23T01:05:57.666Z,0
2022-08-23T01:11:01.816Z,0
2022-08-23T01:16:05.968Z,0
2022-08-23T01:21:10.372Z,0
2022-08-23T01:26:14.333Z,0
2022-08-23T01:31:18.487Z,0
2022-08-23T01:36:22.655Z,0
2022-08-23T01:41:26.777Z,0
2022-08-23T01:46:30.968Z,0
2022-08-23T01:51:35.083Z,0
2022-08-23T01:56:39.512Z,0
2022-08-23T02:01:43.604Z,0
2022-08-23T02:06:47.593Z,0
2022-08-23T02:11:51.780Z,0
2022-08-23T02:17:04.003Z,0
2022-08-23T02:22:00.091Z,0
2022-08-23T02:27:04.239Z,0
2022-08-23T02:32:08.393Z,0
2022-08-23T02:37:12.551Z,0
2022-08-23T02:42:16.713Z,0
2022-08-23T02:47:20.890Z,0
2022-08-23T02:52:25.048Z,0
2022-08-23T02:57:31.493Z,0
2022-08-23T03:02:33.446Z,0
2022-08-23T03:07:37.490Z,0
2022-08-23T03:12:41.645Z,0
2022-08-23T03:17:45.821Z,0
2022-08-23T03:22:54.876Z,0
2022-08-23T03:27:54.201Z,0
2022-08-23T03:32:58.330Z,0
2022-08-23T03:38:02.740Z,0
2022-08-23T03:43:06.613Z,0
2022-08-23T03:48:10.789Z,0
2022-08-23T03:53:14.951Z,0
2022-08-23T03:58:19.120Z,0
2022-08-23T04:03:23.266Z,0
2022-08-23T04:08:31.915Z,3
2022-08-23T04:13:31.614Z,9
2022-08-23T04:18:35.780Z,20
2022-08-23T04:23:39.906Z,42
2022-08-23T04:28:44.091Z,77
2022-08-23T04:33:52.294Z,126
2022-08-23T04:38:52.395Z,186
2022-08-23T04:43:56.559Z,261
2022-08-23T04:49:00.764Z,355
2022-08-23T04:54:04.875Z,455
2022-08-23T04:59:09.062Z,557
2022-08-23T05:04:13.184Z,647
2022-08-23T05:09:20.533Z,742
2022-08-23T05:14:21.506Z,838
2022-08-23T05:19:25.675Z,923
2022-08-23T05:24:29.869Z,1000
2022-08-23T05:29:34.020Z,1080
2022-08-23T05:34:38.138Z,1150
2022-08-23T05:39:42.374Z,1207
2022-08-23T05:44:46.495Z,1265
2022-08-23T05:49:50.661Z,1317
2022-08-23T05:54:54.822Z,1361
2022-08-23T05:59:58.989Z,1410
2022-08-23T06:05:03.093Z,1459
2022-08-23T06:10:07.296Z,1493
2022-08-23T06:15:09.547Z,1541
2022-08-23T06:20:13.970Z,1569
2022-08-23T06:25:17.854Z,1575
2022-08-23T06:30:22.019Z,1615
2022-08-23T06:35:38.421Z,1639
2022-08-23T06:40:30.436Z,1656
2022-08-23T06:45:35.019Z,1655
2022-08-23T06:50:36.787Z,1681
2022-08-23T06:55:40.909Z,1681
2022-08-23T07:00:45.154Z,1693
2022-08-23T07:05:49.246Z,1712
2022-08-23T07:10:53.403Z,1735
2022-08-23T07:15:57.748Z,1761
2022-08-23T07:21:01.728Z,1780
2022-08-23T07:26:05.866Z,1799
2022-08-23T07:31:11.364Z,1813
2022-08-23T07:41:18.353Z,1853
2022-08-23T07:46:22.591Z,1879
2022-08-23T07:51:26.650Z,1892
2022-08-23T07:56:30.818Z,1904
2022-08-23T08:01:35.234Z,1904
2022-08-23T08:06:39.152Z,1910
2022-08-23T08:11:43.292Z,1895
2022-08-23T08:16:47.486Z,1884
2022-08-23T08:21:51.622Z,1868
2022-08-23T08:26:55.826Z,1866
2022-08-23T08:31:59.971Z,1864
2022-08-23T08:37:04.098Z,1869
2022-08-23T08:42:08.299Z,1866
2022-08-23T08:47:12.407Z,1864
2022-08-23T08:52:16.615Z,1867
2022-08-23T08:57:25.357Z,1875
2022-08-23T09:02:32.646Z,1875
2022-08-23T09:07:31.241Z,1873
2022-08-23T09:12:33.191Z,1874
2022-08-23T09:17:37.385Z,1871
2022-08-23T09:22:41.554Z,1870
2022-08-23T09:27:47.178Z,1880
2022-08-23T09:32:49.859Z,1891
2022-08-23T09:37:54.004Z,1902
2022-08-23T09:42:58.168Z,1920
2022-08-23T09:48:02.505Z,1945
2022-08-23T09:53:06.726Z,1953
2022-08-23T09:58:10.663Z,1970
2022-08-23T10:03:19.830Z,2000
2022-08-23T10:08:19.026Z,2126
2022-08-23T10:13:23.147Z,2315
2022-08-23T10:18:27.272Z,2483
2022-08-23T10:23:31.435Z,2541
2022-08-23T10:28:35.716Z,2837
2022-08-23T10:33:39.773Z,3020
2022-08-23T10:38:43.911Z,2713
2022-08-23T10:43:48.093Z,3466
2022-08-23T10:48:52.234Z,3330
2022-08-23T10:53:56.446Z,3316
2022-08-23T10:59:00.531Z,2471
2022-08-23T11:04:04.739Z,2409
2022-08-23T11:09:08.909Z,2374
2022-08-23T11:14:13.017Z,2420
2022-08-23T11:19:17.408Z,2578
2022-08-23T11:24:21.351Z,2643
2022-08-23T11:29:25.495Z,2702
2022-08-23T11:34:30.042Z,2943
2022-08-23T11:39:33.815Z,3097
2022-08-23T11:44:38.324Z,3142
2022-08-23T11:49:42.116Z,3139
2022-08-23T11:54:46.307Z,3220
2022-08-23T11:59:50.470Z,3228
2022-08-23T12:04:54.626Z,3200
2022-08-23T12:09:58.776Z,3655
2022-08-23T12:15:01.052Z,3865
2022-08-23T12:20:05.202Z,4098
2022-08-23T12:25:09.363Z,4109
2022-08-23T12:30:13.515Z,3680
2022-08-23T12:35:17.680Z,3933
2022-08-23T12:40:21.894Z,3794
2022-08-23T12:45:26.013Z,4005
2022-08-23T12:50:32.799Z,3952
2022-08-23T12:55:34.325Z,4203
2022-08-23T13:00:38.471Z,3910
2022-08-23T13:05:42.622Z,3848
2022-08-23T13:10:46.802Z,3878
2022-08-23T13:15:51.068Z,4933
2022-08-23T13:20:55.088Z,4294
2022-08-23T13:25:59.234Z,3965
2022-08-23T13:31:03.504Z,3966
2022-08-23T13:36:13.227Z,4030
2022-08-23T13:41:12.767Z,3873
2022-08-23T13:46:16.000Z,4335
2022-08-23T13:51:20.051Z,3903
2022-08-23T13:56:24.207Z,4063
2022-08-23T14:01:28.417Z,4383
2022-08-23T14:06:32.539Z,4894
2022-08-23T14:11:36.673Z,5871
2022-08-23T14:16:40.907Z,5635
2022-08-23T14:21:45.052Z,6373
2022-08-23T14:26:52.237Z,5798
2022-08-23T14:31:53.321Z,5162
2022-08-23T14:42:01.635Z,5428
2022-08-23T14:47:05.826Z,5274
2022-08-23T14:52:09.996Z,5083
2022-08-23T14:57:14.124Z,5143
2022-08-23T15:02:18.278Z,17487
2022-08-23T15:07:22.415Z,18103
2022-08-23T15:17:31.872Z,19911
2022-08-23T15:22:44.249Z,15971
2022-08-23T15:27:39.053Z,16616
2022-08-23T15:32:52.309Z,18297
2022-08-23T15:37:49.648Z,16909
2022-08-23T15:42:51.561Z,3554
2022-08-23T15:47:55.699Z,16251
2022-08-23T15:52:59.884Z,16780
2022-08-23T15:58:04.061Z,13615
2022-08-23T16:03:18.298Z,13876
2022-08-23T16:08:12.351Z,14352
2022-08-23T16:13:16.502Z,13780
2022-08-23T16:18:20.676Z,13378
2022-08-23T16:23:24.839Z,10166
2022-08-23T16:28:28.986Z,7880
2022-08-23T16:33:33.166Z,6860
2022-08-23T16:38:37.293Z,6395
2022-08-23T16:43:41.499Z,5628
2022-08-23T16:48:45.640Z,5149
2022-08-23T16:54:01.458Z,4519
2022-08-23T16:58:53.951Z,3709
2022-08-23T17:03:58.114Z,3123
2022-08-23T17:09:02.260Z,2811
2022-08-23T17:14:06.412Z,2574
2022-08-23T17:19:10.587Z,2482
2022-08-23T17:24:14.724Z,2817
2022-08-23T17:29:20.416Z,2775
2022-08-23T17:34:23.107Z,2322
2022-08-23T17:39:27.231Z,2285
2022-08-23T17:44:29.491Z,1964
2022-08-23T17:49:33.659Z,1595
2022-08-23T17:54:37.821Z,1242
2022-08-23T17:59:41.989Z,1023
2022-08-23T18:04:46.134Z,865
2022-08-23T18:09:50.287Z,775
2022-08-23T18:14:54.440Z,651
2022-08-23T18:19:58.597Z,544
2022-08-23T18:25:02.737Z,436
2022-08-23T18:30:06.919Z,332
2022-08-23T18:35:11.227Z,213
2022-08-23T18:40:15.272Z,132
2022-08-23T18:45:19.392Z,80
2022-08-23T18:50:23.608Z,49
2022-08-23T18:55:27.696Z,28
2022-08-23T19:00:31.860Z,12
2022-08-23T19:05:41.867Z,5
2022-08-23T19:10:40.202Z,1
2022-08-23T19:15:44.356Z,0
2022-08-23T19:20:48.529Z,0
2022-08-23T19:25:52.771Z,0
2022-08-23T19:30:56.841Z,0
2022-08-23T19:36:01.031Z,0
2022-08-23T19:41:05.149Z,0
2022-08-23T19:46:09.365Z,0
2022-08-23T19:51:13.475Z,0
2022-08-23T19:56:17.639Z,0
2022-08-23T20:01:21.832Z,0
2022-08-23T20:06:25.904Z,0
2022-08-23T20:11:30.145Z,0
2022-08-23T20:16:34.373Z,0
2022-08-23T20:21:38.441Z,0
2022-08-23T20:26:42.593Z,0
2022-08-23T20:31:46.784Z,0
2022-08-23T20:36:50.913Z,0
2022-08-23T20:41:55.051Z,0
2022-08-23T20:47:02.869Z,0
2022-08-23T20:52:03.336Z,0
2022-08-23T20:57:07.516Z,0
2022-08-23T21:02:11.824Z,0
2022-08-23T21:07:15.832Z,0
2022-08-23T21:12:20.009Z,0
2022-08-23T21:22:32.276Z,0
2022-08-23T21:27:32.473Z,0
2022-08-23T21:32:36.651Z,0
2022-08-23T21:37:40.798Z,0
2022-08-23T21:42:44.976Z,0
2022-08-23T21:47:49.138Z,0
2022-08-23T21:52:56.590Z,0
2022-08-23T21:57:57.428Z,0
2022-08-23T22:03:01.923Z,0
2022-08-23T22:08:05.777Z,0
2022-08-23T22:13:09.918Z,0
2022-08-23T22:18:14.048Z,0
2022-08-23T22:23:18.240Z,0
2022-08-23T22:28:22.395Z,0
2022-08-23T22:33:26.559Z,0
2022-08-23T22:38:30.683Z,0
2022-08-23T22:43:34.842Z,0
2022-08-23T22:48:39.034Z,0
2022-08-23T22:53:43.156Z,0
2022-08-23T22:58:47.817Z,0
2022-08-23T23:03:51.557Z,0
2022-08-23T23:08:55.642Z,0
2022-08-23T23:24:06.232Z,0
2022-08-23T23:29:10.403Z,0
2022-08-23T23:34:14.531Z,0
2022-08-23T23:39:18.698Z,0
2022-08-23T23:44:24.412Z,0
2022-08-23T23:49:32.074Z,0
2022-08-23T23:54:29.296Z,0
2022-08-23T23:59:33.484Z,0
